This is the latest recevied weather packets stored in our database for station/object HARMALA. If no packets are shown the sender has not sent any weather packets the latest 1 day(s).
| Time | Temp. | Humidity | Pressure | Rain* | Wind** | Luminosity | Snow |
|---|---|---|---|---|---|---|---|
| 1778077642 | 10° C | 25% | 1013.2 hPa | 0 mm | - | - | - |
| 1778076442 | 10° C | 27% | 1013.1 hPa | 0 mm | - | - | - |
| 1778074042 | 10.56° C | 21% | 1013.1 hPa | 0 mm | - | - | - |
| 1778071642 | 10° C | 24% | 1012.9 hPa | 0 mm | - | - | - |
| 1778069242 | 10° C | 25% | 1012.7 hPa | 0 mm | - | - | - |
| 1778065642 | 9.44° C | 23% | 1012.5 hPa | 0 mm | - | - | - |
| 1778064443 | 9.44° C | 23% | 1012.5 hPa | 0 mm | - | - | - |
| 1778063243 | 10° C | 27% | 1012.2 hPa | 0 mm | - | - | - |
| 1778062043 | 9.44° C | 29% | 1012.2 hPa | 0 mm | - | - | - |
| 1778059643 | 9.44° C | 26% | 1011.9 hPa | 0 mm | - | - | - |
| 1778058443 | 8.89° C | 29% | 1011.9 hPa | 0 mm | - | - | - |
| 1778053643 | 7.78° C | 35% | 1011.4 hPa | 0 mm | - | - | - |
| 1778051243 | 6.67° C | 44% | 1011.2 hPa | 0 mm | - | - | - |
| 1778050043 | 6.67° C | 46% | 1011.1 hPa | 0 mm | - | - | - |
| 1778048843 | 6.67° C | 52% | 1011 hPa | 0 mm | - | - | - |
| 1778047643 | 5.56° C | 55% | 1010.8 hPa | 0 mm | - | - | - |
| 1778046442 | 5° C | 60% | 1010.7 hPa | 0 mm | - | - | - |
| 1778045243 | 5° C | 65% | 1010.6 hPa | 0 mm | - | - | - |
| 1778041642 | 3.33° C | 72% | 1010.1 hPa | 0 mm | - | - | - |
| 1778040442 | 2.78° C | 75% | 1009.9 hPa | 0 mm | - | - | - |
| 1778039243 | 1.67° C | 86% | 1009.8 hPa | 0 mm | - | - | - |
| 1778038042 | -0.56° C | 94% | 1009.6 hPa | 0 mm | - | - | - |
| 1778036842 | -1.11° C | 94% | 1009.4 hPa | 0 mm | - | - | - |
| 1778035642 | -1.11° C | 94% | 1009.1 hPa | 0 mm | - | - | - |
| 1778034442 | -1.11° C | 93% | 1008.9 hPa | 0 mm | - | - | - |
* Rain latest hour (hover to see other rain measurements)
** Current wind speed in m/s (hover to see current wind gust speed)